Time,TemperatureF,DewpointF,PressureIn,WindDirection,WindDirectionDegrees,WindSpeedMPH,WindSpeedGustMPH,Humidity,HourlyPrecipIn,Conditions,Clouds,dailyrainin,SoftwareType,DateUTC
2013-06-21 07:54:00,68.0,37.1,26.14,North,0,0.0,0.0,32,0.00,,---,0.00,VWS V13.01,2013-06-21 13:54:00,
2013-06-21 07:55:00,68.0,37.1,26.14,North,0,0.0,0.0,32,0.00,,---,0.00,VWS V13.01,2013-06-21 13:55:00,
2013-06-21 08:00:00,68.4,37.4,26.14,North,0,0.0,0.0,32,0.00,,---,0.00,VWS V13.01,2013-06-21 14:00:00,
2013-06-21 08:05:00,68.5,36.7,26.14,North,0,0.0,0.0,31,0.00,,---,0.00,VWS V13.01,2013-06-21 14:05:00,
2013-06-21 08:10:00,68.9,35.4,26.14,North,0,0.0,0.0,29,0.00,,---,0.00,VWS V13.01,2013-06-21 14:10:00,
2013-06-21 08:15:00,69.6,36.0,26.14,North,0,0.0,0.0,29,0.00,,---,0.00,VWS V13.01,2013-06-21 14:15:00,
2013-06-21 08:21:00,70.2,34.7,26.14,North,0,0.0,0.0,27,0.00,,---,0.00,VWS V13.01,2013-06-21 14:21:00,
2013-06-21 08:26:00,70.9,34.3,26.14,North,0,0.0,0.0,26,0.00,,---,0.00,VWS V13.01,2013-06-21 14:26:00,
2013-06-21 08:31:00,71.8,34.1,26.14,North,0,0.0,0.0,25,0.00,,---,0.00,VWS V13.01,2013-06-21 14:31:00,
2013-06-21 08:36:00,72.3,33.5,26.14,North,0,0.0,0.0,24,0.00,,---,0.00,VWS V13.01,2013-06-21 14:36:00,
2013-06-21 08:41:00,73.0,33.1,26.14,North,0,0.0,0.0,23,0.00,,---,0.00,VWS V13.01,2013-06-21 14:41:00,
2013-06-21 08:46:00,73.9,31.6,26.14,North,0,0.0,0.0,21,0.00,,---,0.00,VWS V13.01,2013-06-21 14:46:00,
2013-06-21 08:51:00,74.7,32.2,26.17,North,0,0.0,0.0,21,0.00,,---,0.00,VWS V13.01,2013-06-21 14:51:00,
2013-06-21 08:56:00,75.2,32.6,26.17,North,0,0.0,0.0,21,0.00,,---,0.00,VWS V13.01,2013-06-21 14:56:00,
2013-06-21 09:01:00,74.7,32.2,26.17,North,0,0.0,0.0,21,0.00,,---,0.00,VWS V13.01,2013-06-21 15:01:00,
2013-06-21 09:07:00,74.1,31.7,26.17,North,0,0.0,0.0,21,0.00,,---,0.00,VWS V13.01,2013-06-21 15:07:00,
2013-06-21 09:12:00,73.4,31.1,26.17,North,0,0.0,0.0,21,0.00,,---,0.00,VWS V13.01,2013-06-21 15:12:00,
2013-06-21 09:17:00,73.2,32.1,26.17,North,0,0.0,0.0,22,0.00,,---,0.00,VWS V13.01,2013-06-21 15:17:00,
2013-06-21 09:22:00,73.2,32.1,26.17,North,0,0.0,0.0,22,0.00,,---,0.00,VWS V13.01,2013-06-21 15:22:00,
2013-06-21 09:27:00,73.2,32.1,26.17,North,0,0.0,0.0,22,0.00,,---,0.00,VWS V13.01,2013-06-21 15:27:00,
2013-06-21 09:32:00,72.9,31.8,26.17,North,0,0.0,0.0,22,0.00,,---,0.00,VWS V13.01,2013-06-21 15:32:00,
2013-06-21 09:37:00,72.9,31.8,26.14,North,0,0.0,0.0,22,0.00,,---,0.00,VWS V13.01,2013-06-21 15:37:00,
2013-06-21 09:42:00,72.9,31.8,26.14,North,0,0.0,0.0,22,0.00,,---,0.00,VWS V13.01,2013-06-21 15:42:00,
2013-06-21 15:25:00,70.0,33.5,26.08,North,0,0.0,0.0,26,0.00,,---,0.00,VWS V13.01,2013-06-21 21:25:00,
2013-06-21 15:30:00,69.4,34.0,26.08,North,0,0.0,0.0,27,0.00,,---,0.00,VWS V13.01,2013-06-21 21:30:00,
2013-06-21 15:35:00,69.1,34.6,26.08,North,0,0.0,0.0,28,0.00,,---,0.00,VWS V13.01,2013-06-21 21:35:00,
2013-06-21 15:40:00,68.7,35.2,26.08,North,0,0.0,0.0,29,0.00,,---,0.00,VWS V13.01,2013-06-21 21:40:00,
2013-06-21 15:45:00,68.5,35.0,26.08,North,0,0.0,0.0,29,0.00,,---,0.00,VWS V13.01,2013-06-21 21:45:00,
2013-06-21 15:50:00,68.4,37.4,26.08,North,0,0.0,0.0,32,0.00,,---,0.00,VWS V13.01,2013-06-21 21:50:00,
2013-06-21 15:56:00,68.2,37.2,26.08,North,0,0.0,0.0,32,0.00,,---,0.00,VWS V13.01,2013-06-21 21:56:00,
2013-06-21 16:01:00,68.0,37.1,26.08,North,0,0.0,0.0,32,0.00,,---,0.00,VWS V13.01,2013-06-21 22:01:00,
2013-06-21 16:06:00,68.0,37.1,26.08,North,0,0.0,0.0,32,0.00,,---,0.00,VWS V13.01,2013-06-21 22:06:00,
2013-06-21 16:11:00,68.0,37.1,26.08,North,0,0.0,0.0,32,0.00,,---,0.00,VWS V13.01,2013-06-21 22:11:00,
2013-06-21 16:16:00,68.0,37.8,26.08,North,0,0.0,0.0,33,0.00,,---,0.00,VWS V13.01,2013-06-21 22:16:00,
2013-06-21 16:22:00,67.8,37.7,26.08,North,0,0.0,0.0,33,0.00,,---,0.00,VWS V13.01,2013-06-21 22:22:00,
2013-06-21 16:27:00,67.8,37.7,26.08,North,0,0.0,0.0,33,0.00,,---,0.00,VWS V13.01,2013-06-21 22:27:00,
2013-06-21 16:32:00,67.8,37.7,26.08,North,0,0.0,0.0,33,0.00,,---,0.00,VWS V13.01,2013-06-21 22:32:00,
2013-06-21 16:37:00,67.8,37.7,26.08,North,0,0.0,0.0,33,0.00,,---,0.00,VWS V13.01,2013-06-21 22:37:00,
2013-06-21 16:42:00,67.6,37.5,26.08,North,0,0.0,0.0,33,0.00,,---,0.00,VWS V13.01,2013-06-21 22:42:00,
2013-06-21 16:47:00,67.6,37.5,26.08,North,0,0.0,0.0,33,0.00,,---,0.00,VWS V13.01,2013-06-21 22:47:00,
2013-06-21 16:52:00,67.5,38.1,26.08,North,0,0.0,0.0,34,0.00,,---,0.00,VWS V13.01,2013-06-21 22:52:00,
2013-06-21 16:57:00,67.3,38.0,26.08,North,0,0.0,0.0,34,0.00,,---,0.00,VWS V13.01,2013-06-21 22:57:00,
2013-06-21 17:02:00,67.1,37.8,26.08,North,0,0.0,0.0,34,0.00,,---,0.00,VWS V13.01,2013-06-21 23:02:00,
2013-06-21 17:07:00,67.1,37.8,26.08,North,0,0.0,0.0,34,0.00,,---,0.00,VWS V13.01,2013-06-21 23:07:00,
2013-06-21 17:12:00,66.9,37.7,26.08,North,0,0.0,0.0,34,0.00,,---,0.00,VWS V13.01,2013-06-21 23:12:00,